Youngstown, OH (44512)

4:57 PM EST on February 08, 2016 (GMT -0500)
Fred Martin Computers | | Change Station
CLOSE
Current Station
Personal Weather Station
Location: Youngstown, OH
Elevation: 1004 ft
Nearby Weather Stations

Elev 1004 ft 41.05 °N, 80.69 °W | Updated 9 seconds ago

Rain
Rain
34.2 °F
Feels Like 34 °F
N
0.0
Wind Variable Wind from SSW
Gusts 0.0 mph

Today
High -- | Low -- °F
--% Chance of Precip.
Yesterday
High -- | Low -- °F
Precip. -- in
Pressure 29.62 in
Visibility 10.0 miles
Clouds Mostly Cloudy 1100 ft
Overcast 2200 ft
Windchill 34 °F
Dew Point 32 °F
Humidity 90%
Rainfall 0.04 in
Snow Depth Not available.
7:26 AM 5:47 PM
New Moon, 0% visible
METAR KUCP 082056Z AUTO 19008KT 10SM -RA BKN011 OVC022 03/01 A2956 RMK AO2 SLP031 P0000 60000 T00280011 55004
Pressure 29.62 in
Visibility 10.0 miles
Clouds Mostly Cloudy 1100 ft
Overcast 2200 ft
Windchill 34 °F
Dew Point 32 °F
Humidity 90%
Rainfall 0.04 in
Snow Depth Not available.
7:26 AM 5:47 PM
New Moon, 0% visible
METAR KUCP 082056Z AUTO 19008KT 10SM -RA BKN011 OVC022 03/01 A2956 RMK AO2 SLP031 P0000 60000 T00280011 55004

10-Day Weather Forecast

Almanac

Astronomy

Feb. 08, 2016 Rise Set
Actual Time
Civil Twilight
Nautical Twilight
Astronomical Twilight
Moon
Length of Visible Light
Length of Day
Tomorrow will be .
, % of the Moon is Illuminated

Today's Extremes

State Highs State Lows

Community

WunderPhotos

Upload Photos

1,891,512 photos uploaded!

WunderBlog® & News

Nearby

Air Quality

  Air Quality AQ Index Pollutant
Not available.

Snow Depth

Station Depth Elevation

Earthquake Activity

City Distance Mag. Time & Date
Minimum magnitude displayed is 2.5.

Coastal Water Temperatures

Place Temperature

Stations

Nearby Weather Stations

Station Location Temp. Windchill Dew Point Humidity Wind Precip. Elev Updated Type
                   

Watches & Warnings

There are currently no watches in effect.